createdAt,value
2018-07-09T00:00:04.743Z,9.53
2018-07-09T00:05:09.141Z,10.83
2018-07-09T00:10:14.463Z,11.37
2018-07-09T00:15:18.514Z,12.20
2018-07-09T00:20:24.418Z,14.87
2018-07-09T00:25:27.605Z,13.03
2018-07-09T00:30:31.281Z,14.13
2018-07-09T00:35:34.585Z,15.20
2018-07-09T00:40:38.985Z,13.90
2018-07-09T00:45:43.150Z,15.40
2018-07-09T00:50:46.774Z,15.20
2018-07-09T00:55:50.486Z,15.30
2018-07-09T01:00:54.013Z,16.10
2018-07-09T01:05:57.710Z,18.73
2018-07-09T01:11:12.784Z,17.20
2018-07-09T01:16:17.290Z,16.50
2018-07-09T01:21:21.064Z,16.73
2018-07-09T01:26:24.532Z,17.63
2018-07-09T01:31:28.343Z,16.97
2018-07-09T01:36:31.885Z,17.10
2018-07-09T01:41:35.259Z,17.20
2018-07-09T01:46:39.162Z,18.27
2018-07-09T01:51:42.894Z,19.00
2018-07-09T01:56:46.617Z,19.40
2018-07-09T02:01:50.033Z,17.80
2018-07-09T02:06:53.626Z,20.00
2018-07-09T02:11:57.381Z,19.60
2018-07-09T02:17:01.745Z,22.90
2018-07-09T02:22:05.451Z,20.87
2018-07-09T02:27:08.986Z,20.40
2018-07-09T02:32:12.503Z,19.50
2018-07-09T02:37:16.218Z,17.53
2018-07-09T02:42:20.100Z,15.67
2018-07-09T02:47:24.510Z,13.07
2018-07-09T02:52:28.171Z,14.40
2018-07-09T02:57:31.739Z,14.53
2018-07-09T03:02:35.654Z,13.47
2018-07-09T03:07:39.163Z,12.93
2018-07-09T03:12:42.709Z,14.43
2018-07-09T03:17:47.286Z,12.90
2018-07-09T03:22:51.211Z,14.20
2018-07-09T03:27:54.559Z,13.87
2018-07-09T03:32:58.290Z,12.33
2018-07-09T03:38:01.693Z,9.70
2018-07-09T03:43:05.454Z,8.53
2018-07-09T03:48:09.029Z,8.63
2018-07-09T03:53:13.057Z,9.10
2018-07-09T03:58:16.558Z,9.47
2018-07-09T04:03:20.097Z,10.00
2018-07-09T04:08:23.702Z,9.23
2018-07-09T04:13:27.507Z,8.83
2018-07-09T04:18:31.091Z,8.40
2018-07-09T04:23:34.897Z,7.90
2018-07-09T04:28:38.509Z,7.00
2018-07-09T04:33:42.664Z,7.63
2018-07-09T04:38:46.422Z,6.90
2018-07-09T04:49:07.815Z,5.87
2018-07-09T04:54:11.658Z,6.37
2018-07-09T04:59:15.809Z,6.33
2018-07-09T05:04:19.098Z,5.37
2018-07-09T05:09:22.301Z,6.67
2018-07-09T05:14:25.734Z,5.43
2018-07-09T05:19:29.746Z,7.57
2018-07-09T05:24:32.949Z,6.27
2018-07-09T05:29:36.236Z,6.60
2018-07-09T05:34:39.713Z,5.40
2018-07-09T05:39:42.964Z,6.40
2018-07-09T05:44:46.501Z,6.37
2018-07-09T05:49:51.510Z,7.23
2018-07-09T05:54:54.731Z,6.90
2018-07-09T05:59:57.938Z,6.13
2018-07-09T06:05:02.261Z,5.93
2018-07-09T06:10:06.020Z,5.50
2018-07-09T06:15:10.296Z,5.20
2018-07-09T06:20:14.547Z,4.20
2018-07-09T06:25:19.225Z,4.63
2018-07-09T06:30:25.170Z,6.00
2018-07-09T06:35:28.940Z,5.53
2018-07-09T06:40:32.299Z,5.33
2018-07-09T06:45:35.616Z,5.13
2018-07-09T06:50:39.085Z,5.23
2018-07-09T06:55:42.374Z,4.60
2018-07-09T07:00:45.641Z,4.60
2018-07-09T07:05:49.567Z,5.30
2018-07-09T07:10:52.810Z,4.50
2018-07-09T07:15:56.107Z,4.87
2018-07-09T07:20:59.577Z,3.83
2018-07-09T07:26:02.989Z,3.93
2018-07-09T07:31:06.325Z,4.63
2018-07-09T07:36:10.150Z,4.47
2018-07-09T07:41:13.705Z,4.77
2018-07-09T07:46:17.093Z,4.20
2018-07-09T07:51:20.365Z,4.27
2018-07-09T07:56:23.622Z,3.67
2018-07-09T08:01:26.845Z,4.30
2018-07-09T08:06:30.434Z,4.10
2018-07-09T08:11:48.567Z,3.90
2018-07-09T08:16:38.108Z,3.97
2018-07-09T08:21:41.429Z,3.47
2018-07-09T08:26:44.662Z,2.80
2018-07-09T08:31:47.886Z,3.50
2018-07-09T08:36:51.350Z,3.90
2018-07-09T08:41:54.939Z,3.57
2018-07-09T08:46:58.174Z,4.20
2018-07-09T08:52:01.636Z,3.97
2018-07-09T08:57:04.989Z,4.60
2018-07-09T09:02:08.284Z,4.17
2018-07-09T09:07:11.566Z,4.70
2018-07-09T09:12:15.471Z,4.67
2018-07-09T09:17:18.983Z,4.20
2018-07-09T09:22:22.320Z,3.40
2018-07-09T09:27:25.554Z,2.93
2018-07-09T09:32:28.851Z,4.23
2018-07-09T09:37:32.180Z,3.70
2018-07-09T09:42:36.003Z,5.10
2018-07-09T09:47:39.271Z,3.67
2018-07-09T09:52:42.566Z,5.07
2018-07-09T09:57:45.810Z,3.73
2018-07-09T10:02:49.120Z,3.50
2018-07-09T10:07:52.649Z,4.67
2018-07-09T10:12:56.138Z,4.00
2018-07-09T10:17:59.435Z,4.47
2018-07-09T10:23:02.929Z,4.33
2018-07-09T10:28:06.010Z,3.67
2018-07-09T10:33:09.318Z,2.80
2018-07-09T10:38:12.838Z,4.90
2018-07-09T10:43:20.706Z,4.00
2018-07-09T10:48:24.334Z,4.53
2018-07-09T10:53:27.794Z,3.80
2018-07-09T10:58:31.305Z,5.00
2018-07-09T11:03:34.560Z,3.73
2018-07-09T11:08:37.784Z,3.77
2018-07-09T11:13:41.057Z,3.93
2018-07-09T11:18:44.286Z,4.10
2018-07-09T11:23:47.553Z,4.50
2018-07-09T11:28:51.232Z,4.03
2018-07-09T11:33:54.808Z,5.10
2018-07-09T11:38:58.093Z,6.27
2018-07-09T11:44:01.344Z,4.53
2018-07-09T11:49:04.592Z,3.50
2018-07-09T11:54:08.239Z,4.00
2018-07-09T11:59:12.225Z,3.97
2018-07-09T12:04:15.585Z,5.53
2018-07-09T12:09:19.050Z,3.80
2018-07-09T12:14:22.638Z,4.50
2018-07-09T12:19:25.935Z,5.33
2018-07-09T12:24:29.372Z,4.83
2018-07-09T12:29:32.723Z,5.43
2018-07-09T12:34:36.375Z,5.03
2018-07-09T12:39:40.070Z,6.30
2018-07-09T12:44:44.356Z,6.67
2018-07-09T12:49:48.593Z,5.53
2018-07-09T12:54:52.069Z,5.93
2018-07-09T12:59:55.889Z,5.47
2018-07-09T13:04:59.427Z,5.80
2018-07-09T13:10:02.853Z,4.10
2018-07-09T13:15:06.107Z,5.60
2018-07-09T13:20:10.036Z,5.87
2018-07-09T13:25:14.161Z,4.80
2018-07-09T13:30:19.379Z,4.90
2018-07-09T13:35:24.569Z,4.93
2018-07-09T13:40:28.162Z,4.50
2018-07-09T13:45:31.966Z,5.07
2018-07-09T13:50:35.730Z,4.90
2018-07-09T13:55:39.314Z,4.50
2018-07-09T14:00:42.583Z,4.90
2018-07-09T14:05:46.050Z,5.90
2018-07-09T14:10:49.443Z,6.50
2018-07-09T14:15:52.816Z,6.30
2018-07-09T14:20:56.658Z,5.30
2018-07-09T14:26:00.155Z,5.10
2018-07-09T14:31:03.885Z,4.30
2018-07-09T14:36:07.416Z,5.03
2018-07-09T14:41:12.119Z,5.00
2018-07-09T14:46:16.094Z,5.87
2018-07-09T14:51:21.074Z,4.53
2018-07-09T14:56:25.255Z,5.93
2018-07-09T15:01:28.985Z,5.87
2018-07-09T15:06:32.681Z,4.83
2018-07-09T15:11:47.185Z,5.50
2018-07-09T15:16:55.746Z,5.50
2018-07-09T15:21:59.269Z,5.47
2018-07-09T15:27:03.440Z,5.53
2018-07-09T15:32:27.249Z,4.93
2018-07-09T15:37:32.256Z,4.80
2018-07-09T15:42:38.049Z,5.00
2018-07-09T15:47:41.488Z,4.67
2018-07-09T15:52:44.777Z,4.53
2018-07-09T15:57:49.337Z,4.17
2018-07-09T16:02:55.247Z,5.80
2018-07-09T16:07:58.927Z,5.43
2018-07-09T16:13:02.861Z,4.73
2018-07-09T16:18:11.372Z,5.03
2018-07-09T16:23:15.559Z,4.13
2018-07-09T16:28:19.011Z,4.67
2018-07-09T16:33:22.610Z,4.43
2018-07-09T16:38:30.904Z,4.50
2018-07-09T16:43:34.958Z,4.83
2018-07-09T16:48:38.301Z,4.17
2018-07-09T16:53:41.788Z,5.00
2018-07-09T16:58:45.685Z,4.60
2018-07-09T17:03:49.237Z,4.90
2018-07-09T17:08:57.281Z,6.20
2018-07-09T17:14:01.543Z,7.03
2018-07-09T17:19:05.146Z,6.17
2018-07-09T17:24:08.502Z,6.50
2018-07-09T17:29:12.776Z,5.50
2018-07-09T17:34:16.164Z,6.10
2018-07-09T17:39:19.469Z,5.10
2018-07-09T17:44:24.331Z,4.80
2018-07-09T17:49:27.761Z,5.15
2018-07-09T17:54:31.195Z,6.27
2018-07-09T17:59:35.705Z,6.47
2018-07-09T18:04:39.054Z,5.67
2018-07-09T18:09:43.010Z,4.10
2018-07-09T18:14:46.768Z,5.40
2018-07-09T18:19:50.741Z,4.43
2018-07-09T18:24:54.861Z,4.87
2018-07-09T18:29:58.138Z,4.77
2018-07-09T18:35:01.420Z,5.40
2018-07-09T18:40:05.815Z,5.00
2018-07-09T18:45:10.186Z,5.00
2018-07-09T18:50:13.809Z,4.67
2018-07-09T18:55:20.178Z,4.30
2018-07-09T19:00:24.474Z,4.23
2018-07-09T19:05:38.339Z,4.07
2018-07-09T19:10:41.997Z,5.10
2018-07-09T19:15:45.972Z,4.87
2018-07-09T19:21:33.836Z,4.43
2018-07-09T19:26:36.153Z,4.07
2018-07-09T19:31:38.464Z,5.30
2018-07-09T19:36:40.443Z,5.63
2018-07-09T19:41:42.427Z,5.27
2018-07-09T19:46:44.353Z,5.13
2018-07-09T19:51:46.742Z,5.30
2018-07-09T19:56:48.690Z,5.17
2018-07-09T20:01:51.099Z,5.80
2018-07-09T20:06:53.093Z,5.50
2018-07-09T20:11:59.505Z,5.43
2018-07-09T20:17:06.793Z,5.60
2018-07-09T20:22:09.006Z,4.80
2018-07-09T20:27:10.980Z,5.13
2018-07-09T20:32:13.345Z,5.60
2018-07-09T20:37:15.420Z,5.63
2018-07-09T20:42:17.315Z,6.10
2018-07-09T20:47:20.521Z,5.43
2018-07-09T20:52:27.083Z,6.50
2018-07-09T20:57:32.896Z,5.70
2018-07-09T21:02:35.766Z,6.30
2018-07-09T21:07:37.744Z,4.23
2018-07-09T21:12:45.097Z,4.60
2018-07-09T21:17:47.113Z,5.90
2018-07-09T21:22:49.295Z,6.10
2018-07-09T21:27:51.198Z,5.50
2018-07-09T21:32:53.782Z,4.90
2018-07-09T21:37:55.836Z,5.00
2018-07-09T21:42:57.683Z,5.20
2018-07-09T21:53:01.644Z,5.40
2018-07-09T21:58:03.898Z,5.10
2018-07-09T22:03:06.250Z,5.33
2018-07-09T22:08:08.272Z,5.20
2018-07-09T22:13:10.346Z,5.63
2018-07-09T22:18:12.741Z,4.80
2018-07-09T22:23:14.964Z,5.27
2018-07-09T22:28:17.729Z,6.23
2018-07-09T22:33:21.453Z,3.80
2018-07-09T22:38:24.653Z,4.67
2018-07-09T22:43:39.216Z,4.17
2018-07-09T22:48:43.558Z,3.03
2018-07-09T22:53:46.808Z,4.20
2018-07-09T22:58:50.602Z,4.13
2018-07-09T23:03:54.314Z,4.30
2018-07-09T23:16:46.295Z,4.50
2018-07-09T23:22:00.855Z,3.87
2018-07-09T23:27:03.842Z,4.60
2018-07-09T23:32:05.985Z,4.13
2018-07-09T23:37:09.527Z,3.73
2018-07-09T23:42:11.866Z,4.10
2018-07-09T23:47:13.710Z,3.73
2018-07-09T23:52:16.204Z,3.60
2018-07-09T23:59:29.429Z,3.00
